Engelhard, North Carolina
Current Conditions -  °F | °C
As of 8:56 AM on Thursday 30 Oct 2014 (Local Time) from K2DP Reporting Station
Few Clouds Few Clouds  
Wind Chill: 57°   Ceiling: Unl
Heat Index: 57°   Visibility: 10mi
Dew Point: 53°   Wind: 5mph
Humidity: 89%   Direction: 30°NNE
Pressure: 30.01"   Gusts: NA
Location:  35.51°N, 76°W
Report Text: K2DP 301256Z AUTO 03004KT 10SM FEW090 14/12 A3001 RMK AO2 SLPNO T01370119
Loading
Personal Weather Stations






























Interactive Weather Map
Tropical Storm Tracking
New forecast layout! Learn more

10-Day Weather Forecast

Advertisements
Track Severe Weather on mobile